Mud Lick, Kentucky
Current Conditions -  °F | °C
As of 8:55 AM on Monday 24 Nov 2014 (Local Time) from KGLW Reporting Station
Overcast Overcast  
Wind Chill: 55°   Ceiling: 3200
Heat Index: 55°   Visibility: 10mi
Dew Point: 49°   Wind: 18mph
Humidity: 78%   Direction: 250°WSW
Pressure: 29.61"   Gusts: 31mph
Location:  36.7279°N, 85.6843°W
Report Text: KGLW 241455Z AUTO 25016G27KT 10SM SCT023 BKN032 OVC049 13/09 A2961 RMK AO2 P0001 60001 T01300092
Loading
Personal Weather Stations






























Interactive Weather Map New forecast layout! Learn more

10-Day Weather Forecast

Advertisements
Track Severe Weather on mobile